createdAt,value
2019-05-17T00:00:09.520Z,21.07
2019-05-17T00:02:38.143Z,21.63
2019-05-17T00:05:08.392Z,21.83
2019-05-17T00:07:38.587Z,23.27
2019-05-17T00:10:07.418Z,20.07
2019-05-17T00:12:36.715Z,19.57
2019-05-17T00:15:07.688Z,20.10
2019-05-17T00:17:37.812Z,21.80
2019-05-17T00:20:09.827Z,20.53
2019-05-17T00:22:38.355Z,22.37
2019-05-17T00:25:07.623Z,22.47
2019-05-17T00:27:36.971Z,24.73
2019-05-17T00:30:09.418Z,25.67
2019-05-17T00:32:37.955Z,33.97
2019-05-17T00:35:08.227Z,39.60
2019-05-17T00:37:37.468Z,39.93
2019-05-17T00:40:07.771Z,34.47
2019-05-17T00:42:37.155Z,49.47
2019-05-17T00:45:10.064Z,45.27
2019-05-17T00:47:38.607Z,44.70
2019-05-17T00:50:07.878Z,48.93
2019-05-17T00:52:37.156Z,37.07
2019-05-17T00:55:09.621Z,34.43
2019-05-17T00:57:38.203Z,31.30
2019-05-17T01:00:08.522Z,35.20
2019-05-17T01:02:37.382Z,28.00
2019-05-17T01:05:09.153Z,36.87
2019-05-17T01:07:37.952Z,38.50
2019-05-17T01:10:08.691Z,111.73
2019-05-17T01:12:37.313Z,95.70
2019-05-17T01:15:08.686Z,121.50
2019-05-17T01:17:37.174Z,61.57
2019-05-17T01:20:08.873Z,63.20
2019-05-17T01:22:37.466Z,103.43
2019-05-17T01:25:07.934Z,116.57
2019-05-17T01:27:38.190Z,50.17
2019-05-17T01:30:10.559Z,72.77
2019-05-17T01:32:39.144Z,48.37
2019-05-17T01:35:08.347Z,31.93
2019-05-17T01:37:37.280Z,37.37
2019-05-17T01:40:07.209Z,36.33
2019-05-17T01:42:37.395Z,37.03
2019-05-17T01:45:09.762Z,57.47
2019-05-17T01:47:38.354Z,34.63
2019-05-17T01:50:08.757Z,37.43
2019-05-17T01:52:37.410Z,42.93
2019-05-17T01:55:10.515Z,45.03
2019-05-17T01:57:39.064Z,23.97
2019-05-17T02:00:09.662Z,39.63
2019-05-17T02:02:57.820Z,76.37
2019-05-17T02:05:27.422Z,20.00
2019-05-17T02:07:56.931Z,42.20
2019-05-17T02:10:27.144Z,23.87
2019-05-17T02:12:57.046Z,34.37
2019-05-17T02:15:26.774Z,48.93
2019-05-17T02:17:57.343Z,33.87
2019-05-17T02:20:27.501Z,30.80
2019-05-17T02:22:56.494Z,32.17
2019-05-17T02:25:27.199Z,41.97
2019-05-17T02:27:55.751Z,49.67
2019-05-17T02:30:24.516Z,18.67
2019-05-17T02:32:54.179Z,22.93
2019-05-17T02:35:23.332Z,61.80
2019-05-17T02:37:53.443Z,17.83
2019-05-17T02:40:22.834Z,16.20
2019-05-17T02:42:53.591Z,37.93
2019-05-17T02:45:23.370Z,19.43
2019-05-17T02:47:53.752Z,37.73
2019-05-17T02:50:23.429Z,44.73
2019-05-17T02:52:52.759Z,66.60
2019-05-17T02:55:23.253Z,27.17
2019-05-17T02:57:52.946Z,50.97
2019-05-17T03:00:23.973Z,56.03
2019-05-17T03:02:53.667Z,20.90
2019-05-17T03:05:23.279Z,19.03
2019-05-17T03:07:52.786Z,51.00
2019-05-17T03:10:25.260Z,20.70
2019-05-17T03:12:53.047Z,61.53
2019-05-17T03:15:23.414Z,17.70
2019-05-17T03:17:53.655Z,15.40
2019-05-17T03:20:23.235Z,22.67
2019-05-17T03:22:52.647Z,14.23
2019-05-17T03:25:23.809Z,25.00
2019-05-17T03:27:53.633Z,21.77
2019-05-17T03:30:25.844Z,19.63
2019-05-17T03:32:56.094Z,38.67
2019-05-17T03:35:26.626Z,45.77
2019-05-17T03:37:54.002Z,30.03
2019-05-17T03:40:46.310Z,29.87
2019-05-17T03:42:54.994Z,16.67
2019-05-17T03:45:23.493Z,19.90
2019-05-17T03:47:53.235Z,20.77
2019-05-17T03:50:22.642Z,15.07
2019-05-17T03:52:53.555Z,71.07
2019-05-17T03:55:23.497Z,51.37
2019-05-17T03:57:53.237Z,41.40
2019-05-17T04:00:23.402Z,34.20
2019-05-17T04:02:53.762Z,24.83
2019-05-17T04:05:22.915Z,23.67
2019-05-17T04:07:53.608Z,23.33
2019-05-17T04:10:22.851Z,24.57
2019-05-17T04:12:52.970Z,17.80
2019-05-17T04:15:23.937Z,22.20
2019-05-17T04:17:54.113Z,17.33
2019-05-17T04:20:22.608Z,17.07
2019-05-17T04:22:52.690Z,19.90
2019-05-17T04:25:23.397Z,20.77
2019-05-17T04:27:53.677Z,24.43
2019-05-17T04:30:23.331Z,18.57
2019-05-17T04:32:52.771Z,18.50
2019-05-17T04:35:23.258Z,19.73
2019-05-17T04:37:53.169Z,23.73
2019-05-17T04:40:23.108Z,20.67
2019-05-17T04:42:52.665Z,23.40
2019-05-17T04:45:22.998Z,19.20
2019-05-17T04:47:52.874Z,18.80
2019-05-17T04:50:23.071Z,21.37
2019-05-17T04:52:53.585Z,20.33
2019-05-17T04:55:23.045Z,19.57
2019-05-17T04:57:52.979Z,26.47
2019-05-17T05:00:22.022Z,23.20
2019-05-17T05:02:52.798Z,29.60
2019-05-17T05:05:22.850Z,27.77
2019-05-17T05:07:53.445Z,21.00
2019-05-17T05:10:22.517Z,24.27
2019-05-17T05:12:52.454Z,19.10
2019-05-17T05:15:43.992Z,17.93
2019-05-17T05:18:13.602Z,22.20
2019-05-17T05:20:43.629Z,20.93
2019-05-17T05:23:13.084Z,22.17
2019-05-17T05:25:43.005Z,23.63
2019-05-17T05:28:11.995Z,21.90
2019-05-17T05:30:42.211Z,21.03
2019-05-17T05:33:12.989Z,22.83
2019-05-17T05:35:42.548Z,20.23
2019-05-17T05:38:12.974Z,22.57
2019-05-17T05:40:42.753Z,24.33
2019-05-17T05:43:11.925Z,26.57
2019-05-17T05:45:41.636Z,21.97
2019-05-17T05:48:12.732Z,23.27
2019-05-17T05:50:43.214Z,22.83
2019-05-17T05:53:12.877Z,23.80
2019-05-17T05:55:42.889Z,24.83
2019-05-17T05:58:12.383Z,22.17
2019-05-17T06:00:42.838Z,24.20
2019-05-17T06:03:12.042Z,20.90
2019-05-17T06:05:42.274Z,23.27
2019-05-17T06:08:12.308Z,21.93
2019-05-17T06:10:42.664Z,22.43
2019-05-17T06:13:13.204Z,22.47
2019-05-17T06:15:43.009Z,21.40
2019-05-17T06:18:12.323Z,20.33
2019-05-17T06:20:42.064Z,21.20
2019-05-17T06:23:12.191Z,19.80
2019-05-17T06:25:43.522Z,20.17
2019-05-17T06:28:11.727Z,19.57
2019-05-17T06:30:42.670Z,16.10
2019-05-17T06:33:11.940Z,16.83
2019-05-17T06:35:42.317Z,16.30
2019-05-17T06:38:12.051Z,14.97
2019-05-17T06:40:41.978Z,14.70
2019-05-17T06:43:13.055Z,15.50
2019-05-17T06:45:42.057Z,13.80
2019-05-17T06:48:11.778Z,12.37
2019-05-17T06:50:43.067Z,13.10
2019-05-17T06:53:13.111Z,12.90
2019-05-17T06:55:42.567Z,11.83
2019-05-17T06:58:12.208Z,12.75
2019-05-17T07:00:40.892Z,10.25
2019-05-17T07:03:09.715Z,9.60
2019-05-17T07:05:43.085Z,9.40
2019-05-17T07:08:11.585Z,10.40
2019-05-17T07:10:40.209Z,9.10
2019-05-17T07:13:10.634Z,9.28
2019-05-17T07:15:46.887Z,7.60
2019-05-17T07:18:10.241Z,8.25
2019-05-17T07:20:39.614Z,9.60
2019-05-17T07:23:10.754Z,8.38
2019-05-17T07:25:39.777Z,9.00
2019-05-17T07:28:10.013Z,10.50
2019-05-17T07:30:40.256Z,9.48
2019-05-17T07:33:10.141Z,11.10
2019-05-17T07:35:39.767Z,12.07
2019-05-17T07:38:10.585Z,10.65
2019-05-17T07:40:39.922Z,11.12
2019-05-17T07:43:13.771Z,10.15
2019-05-17T07:45:40.518Z,9.93
2019-05-17T07:48:09.927Z,9.55
2019-05-17T07:50:39.834Z,7.83
2019-05-17T07:53:10.289Z,7.15
2019-05-17T07:55:39.882Z,8.53
2019-05-17T07:58:10.052Z,7.90
2019-05-17T08:00:40.082Z,7.30
2019-05-17T08:03:12.691Z,8.30
2019-05-17T08:05:40.338Z,8.70
2019-05-17T08:08:09.777Z,9.53
2019-05-17T08:10:40.885Z,9.00
2019-05-17T08:13:25.140Z,7.85
2019-05-17T08:15:39.871Z,7.92
2019-05-17T08:18:10.790Z,8.45
2019-05-17T08:20:40.190Z,9.38
2019-05-17T08:23:10.476Z,9.90
2019-05-17T08:25:51.929Z,11.28
2019-05-17T08:28:10.938Z,11.05
2019-05-17T08:30:40.986Z,9.70
2019-05-17T08:33:10.862Z,10.58
2019-05-17T08:35:40.331Z,9.70
2019-05-17T08:38:10.391Z,10.18
2019-05-17T08:40:40.460Z,10.43
2019-05-17T08:43:09.944Z,9.35
2019-05-17T08:45:40.683Z,11.15
2019-05-17T08:48:09.639Z,9.18
2019-05-17T08:50:40.332Z,9.93
2019-05-17T08:53:10.744Z,9.33
2019-05-17T08:55:40.912Z,9.48
2019-05-17T08:58:10.427Z,9.53
2019-05-17T09:00:40.497Z,9.00
2019-05-17T09:03:10.722Z,8.60
2019-05-17T09:05:41.833Z,8.63
2019-05-17T09:08:10.660Z,8.58
2019-05-17T09:10:40.742Z,6.95
2019-05-17T09:13:12.366Z,7.05
2019-05-17T09:15:40.165Z,6.90
2019-05-17T09:18:09.811Z,7.08
2019-05-17T09:20:40.624Z,7.10
2019-05-17T09:23:09.724Z,6.90
2019-05-17T09:25:39.753Z,7.83
2019-05-17T09:28:10.241Z,7.85
2019-05-17T09:30:40.632Z,7.67
2019-05-17T09:33:11.391Z,7.97
2019-05-17T09:35:41.042Z,8.35
2019-05-17T09:38:10.475Z,8.70
2019-05-17T09:40:40.326Z,9.60
2019-05-17T09:43:10.202Z,8.58
2019-05-17T09:45:40.531Z,10.20
2019-05-17T09:48:10.362Z,8.98
2019-05-17T09:50:40.051Z,10.05
2019-05-17T09:53:10.737Z,9.00
2019-05-17T09:55:39.837Z,8.35
2019-05-17T09:58:09.970Z,8.43
2019-05-17T10:00:38.806Z,11.50
2019-05-17T10:03:09.759Z,8.08
2019-05-17T10:05:40.269Z,7.50
2019-05-17T10:08:10.622Z,7.15
2019-05-17T10:10:41.127Z,8.27
2019-05-17T10:13:09.999Z,8.90
2019-05-17T10:15:40.829Z,8.90
2019-05-17T10:18:10.993Z,8.80
2019-05-17T10:20:40.065Z,8.13
2019-05-17T10:23:10.424Z,7.87
2019-05-17T10:25:40.060Z,8.53
2019-05-17T10:28:10.127Z,7.78
2019-05-17T10:30:39.889Z,7.55
2019-05-17T10:33:09.880Z,9.05
2019-05-17T10:35:40.655Z,9.43
2019-05-17T10:38:10.252Z,8.10
2019-05-17T10:40:40.822Z,7.90
2019-05-17T10:43:10.301Z,7.63
2019-05-17T10:45:40.049Z,8.60
2019-05-17T10:48:10.285Z,7.50
2019-05-17T10:50:40.641Z,8.57
2019-05-17T10:53:10.155Z,9.40
2019-05-17T10:55:39.656Z,10.40
2019-05-17T10:58:10.085Z,8.55
2019-05-17T11:00:41.295Z,8.60
2019-05-17T11:03:09.984Z,8.60
2019-05-17T11:05:40.524Z,7.40
2019-05-17T11:08:10.836Z,6.63
2019-05-17T11:10:39.756Z,7.00
2019-05-17T11:13:08.621Z,6.63
2019-05-17T11:15:37.135Z,6.03
2019-05-17T11:18:05.676Z,6.90
2019-05-17T11:20:34.192Z,6.97
2019-05-17T11:23:02.714Z,7.67
2019-05-17T11:25:31.280Z,9.90
2019-05-17T11:27:59.865Z,7.50
2019-05-17T11:30:28.427Z,6.87
2019-05-17T11:32:57.008Z,7.80
2019-05-17T11:35:25.555Z,7.03
2019-05-17T11:37:54.048Z,6.20
2019-05-17T11:40:23.286Z,6.67
2019-05-17T11:42:51.758Z,6.77
2019-05-17T11:45:27.605Z,7.93
2019-05-17T11:47:50.452Z,8.23
2019-05-17T11:50:19.208Z,7.80
2019-05-17T11:52:47.714Z,6.57
2019-05-17T11:55:16.566Z,6.50
2019-05-17T11:57:45.098Z,7.33
2019-05-17T12:00:14.728Z,7.40
2019-05-17T12:02:43.241Z,7.50
2019-05-17T12:05:12.233Z,7.87
2019-05-17T12:07:40.749Z,6.77
2019-05-17T12:10:10.694Z,7.87
2019-05-17T12:12:39.182Z,7.03
2019-05-17T12:15:07.923Z,9.23
2019-05-17T12:17:36.564Z,6.33
2019-05-17T12:20:10.096Z,6.90
2019-05-17T12:22:38.677Z,6.70
2019-05-17T12:25:07.684Z,7.37
2019-05-17T12:27:36.293Z,7.63
2019-05-17T12:30:09.783Z,7.40
2019-05-17T12:32:39.818Z,6.60
2019-05-17T12:35:08.760Z,9.10
2019-05-17T12:37:37.237Z,7.00
2019-05-17T12:40:06.581Z,7.23
2019-05-17T12:42:35.120Z,8.77
2019-05-17T12:45:05.602Z,8.90
2019-05-17T12:47:34.156Z,7.47
2019-05-17T12:50:02.677Z,6.23
2019-05-17T12:52:31.172Z,6.30
2019-05-17T12:54:59.678Z,7.10
2019-05-17T12:57:28.226Z,7.70
2019-05-17T12:59:56.785Z,7.23
2019-05-17T13:02:25.549Z,7.30
2019-05-17T13:04:54.132Z,7.50
2019-05-17T13:07:23.473Z,7.83
2019-05-17T13:09:51.999Z,8.37
2019-05-17T13:12:20.479Z,7.17
2019-05-17T13:14:48.938Z,7.67
2019-05-17T13:17:17.443Z,8.27
2019-05-17T13:19:45.982Z,9.30
2019-05-17T13:22:14.520Z,7.65
2019-05-17T13:24:42.964Z,8.20
2019-05-17T13:27:11.441Z,8.77
2019-05-17T13:29:39.959Z,8.25
2019-05-17T13:32:08.598Z,6.97
2019-05-17T13:34:37.122Z,7.20
2019-05-17T13:37:05.666Z,8.27
2019-05-17T13:39:34.231Z,7.30
2019-05-17T13:42:02.734Z,7.93
2019-05-17T13:44:34.337Z,9.17
2019-05-17T13:47:02.811Z,8.20
2019-05-17T13:49:31.369Z,9.10
2019-05-17T13:51:59.876Z,7.40
2019-05-17T13:54:28.455Z,7.13
2019-05-17T13:56:56.943Z,7.27
2019-05-17T13:59:25.479Z,7.10
2019-05-17T14:01:53.991Z,7.60
2019-05-17T14:04:22.491Z,7.17
2019-05-17T14:06:50.990Z,7.07
2019-05-17T14:09:19.530Z,7.23
2019-05-17T14:11:48.098Z,7.33
2019-05-17T14:14:16.663Z,7.30
2019-05-17T14:16:45.231Z,7.97
2019-05-17T14:19:13.726Z,7.67
2019-05-17T14:21:42.462Z,8.73
2019-05-17T14:24:10.962Z,7.03
2019-05-17T14:26:39.539Z,6.73
2019-05-17T14:29:08.186Z,8.60
2019-05-17T14:31:36.756Z,7.07
2019-05-17T14:34:05.332Z,6.90
2019-05-17T14:36:33.950Z,6.70
2019-05-17T14:39:02.416Z,6.77
2019-05-17T14:41:31.041Z,7.93
2019-05-17T14:43:59.639Z,7.70
2019-05-17T14:46:28.146Z,7.70
2019-05-17T14:48:56.693Z,8.33
2019-05-17T14:51:25.206Z,8.33
2019-05-17T14:53:53.731Z,8.00
2019-05-17T14:56:22.252Z,8.17
2019-05-17T14:58:50.729Z,7.37
2019-05-17T15:01:19.209Z,7.07
2019-05-17T15:03:47.703Z,7.67
2019-05-17T15:06:16.184Z,6.80
2019-05-17T15:08:44.706Z,7.03
2019-05-17T15:11:13.268Z,6.97
2019-05-17T15:13:41.754Z,6.73
2019-05-17T15:16:10.298Z,7.03
2019-05-17T15:18:38.817Z,6.97
2019-05-17T15:21:07.294Z,10.13
2019-05-17T15:23:35.784Z,6.87
2019-05-17T15:26:04.252Z,8.33
2019-05-17T15:28:32.811Z,6.80
2019-05-17T15:31:10.510Z,7.57
2019-05-17T15:33:34.696Z,6.40
2019-05-17T15:36:03.166Z,7.03
2019-05-17T15:38:31.648Z,7.17
2019-05-17T15:41:00.111Z,7.03
2019-05-17T15:43:28.590Z,7.67
2019-05-17T15:45:57.114Z,7.62
2019-05-17T15:48:25.635Z,7.07
2019-05-17T15:50:54.086Z,8.60
2019-05-17T15:53:22.669Z,7.83
2019-05-17T15:55:51.204Z,7.55
2019-05-17T15:58:19.717Z,6.80
2019-05-17T16:00:49.792Z,8.33
2019-05-17T16:03:18.335Z,6.80
2019-05-17T16:05:46.850Z,6.77
2019-05-17T16:08:15.373Z,7.13
2019-05-17T16:10:43.938Z,8.40
2019-05-17T16:13:12.552Z,6.27
2019-05-17T16:15:41.140Z,8.83
2019-05-17T16:18:09.680Z,6.27
2019-05-17T16:20:40.526Z,6.40
2019-05-17T16:23:09.847Z,6.20
2019-05-17T16:25:38.953Z,6.60
2019-05-17T16:28:10.156Z,5.87
2019-05-17T16:30:39.161Z,6.37
2019-05-17T16:33:07.859Z,6.13
2019-05-17T16:35:36.392Z,6.70
2019-05-17T16:38:04.978Z,6.67
2019-05-17T16:40:33.598Z,7.83
2019-05-17T16:43:16.747Z,6.53
2019-05-17T16:45:32.438Z,5.70
2019-05-17T16:48:00.954Z,5.47
2019-05-17T16:50:29.600Z,5.80
2019-05-17T16:53:06.119Z,6.87
2019-05-17T16:55:28.395Z,5.33
2019-05-17T16:57:56.862Z,6.83
2019-05-17T17:00:30.354Z,5.80
2019-05-17T17:02:59.158Z,6.03
2019-05-17T17:05:27.688Z,5.60
2019-05-17T17:07:56.340Z,8.23
2019-05-17T17:10:25.185Z,4.77
2019-05-17T17:12:53.806Z,6.10
2019-05-17T17:15:22.426Z,5.80
2019-05-17T17:17:50.911Z,5.37
2019-05-17T17:20:20.087Z,5.57
2019-05-17T17:22:48.689Z,6.87
2019-05-17T17:25:17.302Z,4.97
2019-05-17T17:27:45.863Z,9.83
2019-05-17T17:30:15.835Z,6.13
2019-05-17T17:32:44.439Z,7.37
2019-05-17T17:35:13.265Z,6.07
2019-05-17T17:37:41.764Z,5.50
2019-05-17T17:40:10.532Z,6.03
2019-05-17T17:42:39.300Z,7.23
2019-05-17T17:45:10.499Z,5.97
2019-05-17T17:47:38.999Z,5.97
2019-05-17T17:50:08.046Z,8.70
2019-05-17T17:52:36.628Z,5.83
2019-05-17T17:55:06.504Z,5.43
2019-05-17T17:57:34.954Z,6.80
2019-05-17T18:00:05.399Z,6.03
2019-05-17T18:02:33.894Z,8.57
2019-05-17T18:05:02.591Z,8.43
2019-05-17T18:07:31.181Z,6.97
2019-05-17T18:09:59.669Z,6.37
2019-05-17T18:12:28.129Z,6.93
2019-05-17T18:14:56.631Z,7.17
2019-05-17T18:17:25.136Z,7.90
2019-05-17T18:19:53.612Z,6.87
2019-05-17T18:22:22.094Z,7.73
2019-05-17T18:24:50.594Z,7.10
2019-05-17T18:27:19.074Z,7.87
2019-05-17T18:29:47.532Z,7.97
2019-05-17T18:32:16.085Z,7.80
2019-05-17T18:34:44.547Z,9.70
2019-05-17T18:37:13.035Z,10.07
2019-05-17T18:39:41.512Z,10.03
2019-05-17T18:42:10.012Z,8.10
2019-05-17T18:44:38.548Z,9.03
2019-05-17T18:47:07.132Z,9.00
2019-05-17T18:49:39.426Z,8.10
2019-05-17T18:52:07.941Z,10.07
2019-05-17T18:54:36.437Z,9.23
2019-05-17T18:57:04.930Z,10.00
2019-05-17T18:59:33.430Z,8.77
2019-05-17T19:02:01.926Z,8.50
2019-05-17T19:04:30.399Z,10.70
2019-05-17T19:06:58.907Z,10.50
2019-05-17T19:09:27.375Z,9.77
2019-05-17T19:11:55.892Z,8.80
2019-05-17T19:14:24.333Z,11.00
2019-05-17T19:16:52.883Z,11.67
2019-05-17T19:19:21.374Z,10.03
2019-05-17T19:21:49.969Z,10.10
2019-05-17T19:24:18.443Z,10.77
2019-05-17T19:26:46.931Z,11.10
2019-05-17T19:29:15.413Z,11.60
2019-05-17T19:31:43.920Z,10.70
2019-05-17T19:34:12.400Z,11.80
2019-05-17T19:36:41.675Z,13.90
2019-05-17T19:39:10.313Z,11.13
2019-05-17T19:41:38.794Z,13.47
2019-05-17T19:44:07.333Z,11.90
2019-05-17T19:46:35.834Z,11.23
2019-05-17T19:49:04.528Z,11.40
2019-05-17T19:51:33.052Z,13.70
2019-05-17T19:54:01.515Z,12.33
2019-05-17T19:56:30.027Z,13.80
2019-05-17T19:58:58.535Z,14.93
2019-05-17T20:01:27.058Z,12.40
2019-05-17T20:03:55.513Z,13.37
2019-05-17T20:06:24.021Z,11.80
2019-05-17T20:08:52.503Z,15.38
2019-05-17T20:11:33.687Z,12.47
2019-05-17T20:13:51.279Z,13.20
2019-05-17T20:16:19.773Z,14.60
2019-05-17T20:18:48.272Z,13.37
2019-05-17T20:21:16.753Z,13.23
2019-05-17T20:23:45.247Z,14.23
2019-05-17T20:26:13.715Z,16.17
2019-05-17T20:28:42.257Z,12.43
2019-05-17T20:31:10.742Z,13.13
2019-05-17T20:33:39.240Z,12.47
2019-05-17T20:36:07.715Z,13.10
2019-05-17T20:38:36.227Z,13.57
2019-05-17T20:41:04.685Z,15.03
2019-05-17T20:43:33.197Z,14.90
2019-05-17T20:46:01.676Z,14.50
2019-05-17T20:48:30.212Z,13.27
2019-05-17T20:50:58.711Z,12.73
2019-05-17T20:53:27.196Z,13.33
2019-05-17T20:55:55.861Z,14.17
2019-05-17T20:58:24.400Z,13.90
2019-05-17T21:00:52.953Z,13.60
2019-05-17T21:03:21.456Z,14.77
2019-05-17T21:05:49.964Z,16.97
2019-05-17T21:08:18.493Z,16.03
2019-05-17T21:10:46.962Z,14.30
2019-05-17T21:13:15.464Z,14.97
2019-05-17T21:15:47.869Z,13.63
2019-05-17T21:18:14.162Z,16.87
2019-05-17T21:20:42.628Z,13.53
2019-05-17T21:23:11.125Z,13.33
2019-05-17T21:25:39.607Z,13.97
2019-05-17T21:28:08.098Z,13.73
2019-05-17T21:30:36.573Z,14.73
2019-05-17T21:33:05.248Z,14.17
2019-05-17T21:35:33.720Z,13.53
2019-05-17T21:38:02.230Z,15.47
2019-05-17T21:40:30.702Z,14.83
2019-05-17T21:42:59.216Z,14.57
2019-05-17T21:45:27.693Z,14.57
2019-05-17T21:47:58.906Z,12.73
2019-05-17T21:50:27.384Z,14.77
2019-05-17T21:52:55.905Z,13.97
2019-05-17T21:55:27.324Z,16.23
2019-05-17T21:57:55.834Z,17.13
2019-05-17T22:00:51.715Z,14.67
2019-05-17T22:03:21.431Z,13.93
2019-05-17T22:05:49.914Z,15.83
2019-05-17T22:08:18.404Z,14.77
2019-05-17T22:10:46.880Z,16.03
2019-05-17T22:13:15.378Z,14.83
2019-05-17T22:15:43.858Z,16.30
2019-05-17T22:18:12.365Z,14.90
2019-05-17T22:20:40.851Z,14.83
2019-05-17T22:23:09.361Z,15.90
2019-05-17T22:25:37.838Z,15.67
2019-05-17T22:28:06.356Z,17.60
2019-05-17T22:30:34.841Z,15.93
2019-05-17T22:33:03.351Z,16.57
2019-05-17T22:35:31.888Z,15.87
2019-05-17T22:38:00.441Z,17.17
2019-05-17T22:40:29.002Z,17.13
2019-05-17T22:42:57.554Z,16.73
2019-05-17T22:45:26.206Z,17.70
2019-05-17T22:47:54.707Z,16.37
2019-05-17T22:50:23.333Z,18.73
2019-05-17T22:52:51.871Z,17.73
2019-05-17T22:55:20.530Z,19.90
2019-05-17T22:57:49.088Z,17.93
2019-05-17T23:00:17.766Z,17.37
2019-05-17T23:02:46.266Z,18.33
2019-05-17T23:05:14.841Z,17.27
2019-05-17T23:07:43.509Z,18.27
2019-05-17T23:10:12.275Z,16.80
2019-05-17T23:12:40.752Z,19.10
2019-05-17T23:15:09.609Z,18.13
2019-05-17T23:17:38.266Z,19.23
2019-05-17T23:20:07.321Z,19.40
2019-05-17T23:22:35.821Z,17.33
2019-05-17T23:25:06.931Z,18.40
2019-05-17T23:27:35.417Z,20.10
2019-05-17T23:30:05.354Z,19.90
2019-05-17T23:32:34.141Z,20.43
2019-05-17T23:35:04.066Z,19.43
2019-05-17T23:37:39.493Z,21.00
2019-05-17T23:40:08.985Z,18.67
2019-05-17T23:42:39.604Z,19.60
2019-05-17T23:45:08.796Z,20.50
2019-05-17T23:47:37.277Z,21.17
2019-05-17T23:50:09.108Z,19.33
2019-05-17T23:52:37.574Z,19.17
2019-05-17T23:55:07.180Z,19.23
2019-05-17T23:57:35.652Z,22.27
